Terminal Aerodrome Forecast
Issued by NWS

Home | Current Version | Previous Version | Text Only | Print | Product List | Glossary On
Versions: 1 2 3 4 5 6 7 8 9 10 11 12
611
FTUS44 KEPZ 251120
TAFDMN
TAF
KDMN 251120Z 2512/2612 25006KT P6SM SKC
     FM251600 24012G22KT P6SM SKC
     FM252000 24025G35KT 4SM BLDU SKC
     FM260000 25021G28KT P6SM SKC
     FM260300 25015KT P6SM SKC=

USA.gov is the U.S. government's official web portal to all federal, state and local government web resources and services.